Cochise — WDD8952 — position and weather

sailwx.info

Track history (hours):
 
Tides and Currents Weather Stations Pressure Air Temp Water Temp Dewpoint Dewpoint Depression Visibility Wind Speed Wind Dir Waves Ship Positions

Cochise

More information available from US FCC via Universal Licensing System and Coast Guard Vessel Documentation Center.

Last reported at 2014-Aug-21 23:08 UTC. Time now 2014-Aug-22 02:01 UTC.
Position N 38°26' W 123°33'.

Length 32 m; draft 4.9 m.

Type: Tow > 200 m length. MMSI: 367304990.

Date/timePositionNaut miles runAvg speedWind from/ knotsBaromVisibWave heightAir tempDewpointWater temp
2014-Aug-21 23:08N 38°26' W 123°33'5 8.8
2014-Aug-21 22:33N 38°22' W 123°30'9 8.7
2014-Aug-21 21:33N 38°15' W 123°23'9 8.9
2014-Aug-21 20:33N 38°07' W 123°17'11 9.3
2014-Aug-21 19:24N 37°59' W 123°08'8 9.5
2014-Aug-21 18:33N 37°55' W 122°60'12 9.2
2014-Aug-21 17:16N 37°49' W 122°47'7 9.3
2014-Aug-21 16:28N 37°46' W 122°38'7 7.9
2014-Aug-21 15:33N 37°49' W 122°30'6 6.5
2014-Aug-21 14:33N 37°54' W 122°25'1 1.4
2014-Aug-21 13:33N 37°55' W 122°25'0 0.3
2014-Aug-21 12:33N 37°55' W 122°25'0 0.0
2014-Aug-21 11:33N 37°55' W 122°25'0 0.0
2014-Aug-21 10:33N 37°55' W 122°25'0 0.0
2014-Aug-21 09:33N 37°55' W 122°25'0 0.0
2014-Aug-21 08:33N 37°55' W 122°25'0 0.0
2014-Aug-21 07:33N 37°55' W 122°25'0 0.0
2014-Aug-21 06:33N 37°55' W 122°25'0 0.0
2014-Aug-21 05:33N 37°55' W 122°25'0 0.0
2014-Aug-21 04:33N 37°55' W 122°25'0 0.0
2014-Aug-21 03:33N 37°55' W 122°25'0 0.0
2014-Aug-21 02:33N 37°55' W 122°25'0 0.0
2014-Aug-21 01:32N 37°55' W 122°25'0 0.0
2014-Aug-21 00:29N 37°55' W 122°25'0 0.0
2014-Aug-20 23:32N 37°55' W 122°25'0 0.0
2014-Aug-20 22:14N 37°55' W 122°25'0 0.0
2014-Aug-20 21:32N 37°55' W 122°25'0 0.0
2014-Aug-20 20:26N 37°55' W 122°25'0 0.0
2014-Aug-20 19:32N 37°55' W 122°25'0 0.3
2014-Aug-20 18:33N 37°55' W 122°25'4 3.8
2014-Aug-20 17:33N 37°59' W 122°25'7 7.2
2014-Aug-20 16:34N 38°03' W 122°18'5 0.2
2014-Aug-19 18:13N 38°03' W 122°12'3 5.0
2014-Aug-19 17:33N 38°04' W 122°16'4 4.1
2014-Aug-19 16:32N 38°02' W 122°21'5 5.4
2014-Aug-19 15:33N 37°58' W 122°26'3 2.9
2014-Aug-19 14:33N 37°55' W 122°25'0 0.1
2014-Aug-19 13:30N 37°55' W 122°25'0 0.0
2014-Aug-19 12:30N 37°55' W 122°25'0 0.0
2014-Aug-19 11:24N 37°55' W 122°25'0 0.0
2014-Aug-19 10:18N 37°55' W 122°25'0 0.0
2014-Aug-19 09:30N 37°55' W 122°25'0 0.0
2014-Aug-19 08:24N 37°55' W 122°25'0 0.0
2014-Aug-19 07:33N 37°55' W 122°25'0 0.0
2014-Aug-19 06:33N 37°55' W 122°25'0 0.0
2014-Aug-19 05:33N 37°55' W 122°25'0 0.0
2014-Aug-19 04:33N 37°55' W 122°25'0 0.0
2014-Aug-19 03:33N 37°55' W 122°25'0 0.0
2014-Aug-19 02:30N 37°55' W 122°25'0 0.0
2014-Aug-19 01:33N 37°55' W 122°25'0 0.0
2014-Aug-19 00:30N 37°55' W 122°25'0 0.0
2014-Aug-18 23:30N 37°55' W 122°25'0 0.0
2014-Aug-18 22:27N 37°55' W 122°25'0 0.0
2014-Aug-18 21:30N 37°55' W 122°25'0 0.0
2014-Aug-18 20:30N 37°55' W 122°25'0 0.0
2014-Aug-18 19:27N 37°55' W 122°25'0 0.0
2014-Aug-18 18:33N 37°55' W 122°25'0 0.0
2014-Aug-18 17:33N 37°55' W 122°25'0 0.0
2014-Aug-18 16:33N 37°55' W 122°25'0 0.0
2014-Aug-18 15:33N 37°55' W 122°25'0 0.0
2014-Aug-18 14:33N 37°55' W 122°25'0 0.1
2014-Aug-18 13:32N 37°55' W 122°25'1 0.9
2014-Aug-18 12:33N 37°55' W 122°26'0 0.2
2014-Aug-18 11:22N 37°55' W 122°26'0 0.1
2014-Aug-18 10:31N 37°55' W 122°26'0 0.0
2014-Aug-18 09:31N 37°55' W 122°26'0 0.0
2014-Aug-18 08:31N 37°55' W 122°26'0 0.0
2014-Aug-18 07:31N 37°55' W 122°26'0 0.0
2014-Aug-18 06:31N 37°55' W 122°26'0 0.0
2014-Aug-18 05:31N 37°55' W 122°26'0 0.0
2014-Aug-18 04:31N 37°55' W 122°26'0 0.1
2014-Aug-18 03:31N 37°55' W 122°26'0 0.0
2014-Aug-18 02:25N 37°55' W 122°26'0 0.0
2014-Aug-18 01:31N 37°55' W 122°26'0 0.0
2014-Aug-18 00:28N 37°55' W 122°26'0 0.0
2014-Aug-17 18:31N 37°55' W 122°26'0 0.0
2014-Aug-17 17:31N 37°55' W 122°26'0 0.0
2014-Aug-17 16:28N 37°55' W 122°26'0 0.0
2014-Aug-17 15:28N 37°55' W 122°26'0 0.0
2014-Aug-17 14:31N 37°55' W 122°26'0 0.0
2014-Aug-17 13:22N 37°55' W 122°26'0 0.0
2014-Aug-17 12:31N 37°55' W 122°26'0 0.0
2014-Aug-17 11:28N 37°55' W 122°26'0 0.0
2014-Aug-17 10:31N 37°55' W 122°26'0 0.1
2014-Aug-17 09:31N 37°55' W 122°26'0 0.0
2014-Aug-17 08:28N 37°55' W 122°26'0 0.0
2014-Aug-17 07:31N 37°55' W 122°26'0 0.0
2014-Aug-17 06:31N 37°55' W 122°26'0 0.0
2014-Aug-17 05:31N 37°55' W 122°26'0 0.0
2014-Aug-17 04:31N 37°55' W 122°26'0 0.0
2014-Aug-17 03:31N 37°55' W 122°26'0 0.1
2014-Aug-17 02:22N 37°55' W 122°26'0 0.1
2014-Aug-17 01:31N 37°55' W 122°26'0 0.0
2014-Aug-17 00:22N 37°55' W 122°26'0 0.0
2014-Aug-16 23:16N 37°55' W 122°26'0 0.0
2014-Aug-16 22:28N 37°55' W 122°26'6 7.1
2014-Aug-16 21:33N 37°49' W 122°27'1111.2
2014-Aug-16 20:33N 37°46' W 122°41'1010.0
2014-Aug-16 19:33N 37°49' W 122°53'10 9.8
2014-Aug-16 18:33N 37°54' W 123°04'10 9.6
2014-Aug-16 17:33N 37°60' W 123°13'10 9.9
2014-Aug-16 16:33N 38°07' W 123°21'1010.0
2014-Aug-16 15:33N 38°16' W 123°27'10 9.9
2014-Aug-16 14:33N 38°25' W 123°32'10 9.9
2014-Aug-16 13:33N 38°34' W 123°38'9 9.5
2014-Aug-16 12:33N 38°43' W 123°43'10 9.4
2014-Aug-16 11:32N 38°51' W 123°48'388 9.6
2014-Aug-14 19:12N 45°18' W 124°44'6 9.9
2014-Aug-14 18:33N 45°24' W 124°44'10 9.9
2014-Aug-14 17:33N 45°34' W 124°42'10 9.7
2014-Aug-14 16:33N 45°43' W 124°38'10 9.8
2014-Aug-14 15:33N 45°52' W 124°32'9 9.5
2014-Aug-14 14:33N 46°00' W 124°25'10 9.5
2014-Aug-14 13:33N 46°08' W 124°17'10 9.8
2014-Aug-14 12:34N 46°14' W 124°06'9 9.2
2014-Aug-14 11:33N 46°11' W 123°54'9 9.4
2014-Aug-14 10:34N 46°15' W 123°41'9 9.3
2014-Aug-14 09:33N 46°16' W 123°28'10 9.5
2014-Aug-14 08:33N 46°09' W 123°19'1111.4
2014-Aug-14 07:33N 46°09' W 123°03'1211.9
2014-Aug-14 06:33N 46°01' W 122°51'1211.6
2014-Aug-14 05:33N 45°49' W 122°48'1110.7
2014-Aug-14 04:33N 45°38' W 122°47'5 4.7
2014-Aug-14 03:33N 45°34' W 122°44'2 1.7
2014-Aug-14 02:33N 45°33' W 122°42'0 0.0
2014-Aug-14 01:33N 45°33' W 122°42'0 0.0
2014-Aug-14 00:33N 45°33' W 122°42'0 0.0
2014-Aug-13 23:33N 45°33' W 122°42'0 0.0
2014-Aug-13 22:33N 45°33' W 122°42'0 0.0
2014-Aug-13 21:34N 45°33' W 122°42'0 0.0
2014-Aug-13 20:33N 45°33' W 122°42'0 0.0
2014-Aug-13 19:33N 45°33' W 122°42'0 0.0
2014-Aug-13 18:34N 45°33' W 122°42'0 0.0
2014-Aug-13 17:33N 45°33' W 122°42'0 0.0
2014-Aug-13 16:34N 45°33' W 122°42'2 1.7
2014-Aug-13 15:33N 45°34' W 122°44'0 0.2
2014-Aug-13 14:33N 45°34' W 122°44'6 5.7
2014-Aug-13 13:33N 45°40' W 122°46'9 9.1
2014-Aug-13 12:33N 45°49' W 122°48'9 9.0
2014-Aug-13 11:33N 45°58' W 122°49'9 8.8
2014-Aug-13 10:33N 46°05' W 122°55'9 8.8
2014-Aug-13 09:33N 46°10' W 123°06'8 7.8
2014-Aug-13 08:33N 46°09' W 123°17'7 7.0
2014-Aug-13 07:34N 46°12' W 123°26'6 6.1
2014-Aug-13 06:33N 46°15' W 123°33'8 7.8
2014-Aug-13 05:33N 46°14' W 123°44'7 7.5
2014-Aug-13 04:33N 46°11' W 123°54'6 5.7
2014-Aug-13 03:33N 46°15' W 124°01'4 4.0
2014-Aug-13 02:33N 46°15' W 124°06'7 6.7
2014-Aug-13 01:33N 46°10' W 124°13'6 6.3
2014-Aug-13 00:33N 46°05' W 124°19'6 6.0
2014-Aug-12 23:32N 45°60' W 124°24'6 5.9
2014-Aug-12 22:33N 45°55' W 124°28'6 5.6
2014-Aug-12 21:33N 45°50' W 124°32'6 6.0
2014-Aug-12 20:33N 45°45' W 124°38'6 6.2
2014-Aug-12 19:33N 45°41' W 124°43'6 6.3
2014-Aug-12 18:33N 45°36' W 124°49'7 6.6
2014-Aug-12 17:33N 45°31' W 124°55'6 6.2
2014-Aug-12 16:32N 45°25' W 124°57'7 6.3
2014-Aug-12 15:26N 45°18' W 124°59'  
Track history (hours):
 
Tides and Currents Weather Stations Pressure Air Temp Water Temp Dewpoint Dewpoint Depression Visibility Wind Speed Wind Dir Waves Ship Positions

Cochise

More information available from US FCC via Universal Licensing System and Coast Guard Vessel Documentation Center.

Last reported at 2014-Aug-21 23:08 UTC. Time now 2014-Aug-22 02:01 UTC.
Position N 38°26' W 123°33'.

Length 32 m; draft 4.9 m.

Type: Tow > 200 m length. MMSI: 367304990.

Date/timePositionNaut miles runAvg speedWind from/ knotsBaromVisibWave heightAir tempDewpointWater temp
2014-Aug-21 23:08N 38°26' W 123°33'5 8.8
2014-Aug-21 22:33N 38°22' W 123°30'9 8.7
2014-Aug-21 21:33N 38°15' W 123°23'9 8.9
2014-Aug-21 20:33N 38°07' W 123°17'11 9.3
2014-Aug-21 19:24N 37°59' W 123°08'8 9.5
2014-Aug-21 18:33N 37°55' W 122°60'12 9.2
2014-Aug-21 17:16N 37°49' W 122°47'7 9.3
2014-Aug-21 16:28N 37°46' W 122°38'7 7.9
2014-Aug-21 15:33N 37°49' W 122°30'6 6.5
2014-Aug-21 14:33N 37°54' W 122°25'1 1.4
2014-Aug-21 13:33N 37°55' W 122°25'0 0.3
2014-Aug-21 12:33N 37°55' W 122°25'0 0.0
2014-Aug-21 11:33N 37°55' W 122°25'0 0.0
2014-Aug-21 10:33N 37°55' W 122°25'0 0.0
2014-Aug-21 09:33N 37°55' W 122°25'0 0.0
2014-Aug-21 08:33N 37°55' W 122°25'0 0.0
2014-Aug-21 07:33N 37°55' W 122°25'0 0.0
2014-Aug-21 06:33N 37°55' W 122°25'0 0.0
2014-Aug-21 05:33N 37°55' W 122°25'0 0.0
2014-Aug-21 04:33N 37°55' W 122°25'0 0.0
2014-Aug-21 03:33N 37°55' W 122°25'0 0.0
2014-Aug-21 02:33N 37°55' W 122°25'0 0.0
2014-Aug-21 01:32N 37°55' W 122°25'0 0.0
2014-Aug-21 00:29N 37°55' W 122°25'0 0.0
2014-Aug-20 23:32N 37°55' W 122°25'0 0.0
2014-Aug-20 22:14N 37°55' W 122°25'0 0.0
2014-Aug-20 21:32N 37°55' W 122°25'0 0.0
2014-Aug-20 20:26N 37°55' W 122°25'0 0.0
2014-Aug-20 19:32N 37°55' W 122°25'0 0.3
2014-Aug-20 18:33N 37°55' W 122°25'4 3.8
2014-Aug-20 17:33N 37°59' W 122°25'7 7.2
2014-Aug-20 16:34N 38°03' W 122°18'5 0.2
2014-Aug-19 18:13N 38°03' W 122°12'3 5.0
2014-Aug-19 17:33N 38°04' W 122°16'4 4.1
2014-Aug-19 16:32N 38°02' W 122°21'5 5.4
2014-Aug-19 15:33N 37°58' W 122°26'3 2.9
2014-Aug-19 14:33N 37°55' W 122°25'0 0.1
2014-Aug-19 13:30N 37°55' W 122°25'0 0.0
2014-Aug-19 12:30N 37°55' W 122°25'0 0.0
2014-Aug-19 11:24N 37°55' W 122°25'0 0.0
2014-Aug-19 10:18N 37°55' W 122°25'0 0.0
2014-Aug-19 09:30N 37°55' W 122°25'0 0.0
2014-Aug-19 08:24N 37°55' W 122°25'0 0.0
2014-Aug-19 07:33N 37°55' W 122°25'0 0.0
2014-Aug-19 06:33N 37°55' W 122°25'0 0.0
2014-Aug-19 05:33N 37°55' W 122°25'0 0.0
2014-Aug-19 04:33N 37°55' W 122°25'0 0.0
2014-Aug-19 03:33N 37°55' W 122°25'0 0.0
2014-Aug-19 02:30N 37°55' W 122°25'0 0.0
2014-Aug-19 01:33N 37°55' W 122°25'0 0.0
2014-Aug-19 00:30N 37°55' W 122°25'0 0.0
2014-Aug-18 23:30N 37°55' W 122°25'0 0.0
2014-Aug-18 22:27N 37°55' W 122°25'0 0.0
2014-Aug-18 21:30N 37°55' W 122°25'0 0.0
2014-Aug-18 20:30N 37°55' W 122°25'0 0.0
2014-Aug-18 19:27N 37°55' W 122°25'0 0.0
2014-Aug-18 18:33N 37°55' W 122°25'0 0.0
2014-Aug-18 17:33N 37°55' W 122°25'0 0.0
2014-Aug-18 16:33N 37°55' W 122°25'0 0.0
2014-Aug-18 15:33N 37°55' W 122°25'0 0.0
2014-Aug-18 14:33N 37°55' W 122°25'0 0.1
2014-Aug-18 13:32N 37°55' W 122°25'1 0.9
2014-Aug-18 12:33N 37°55' W 122°26'0 0.2
2014-Aug-18 11:22N 37°55' W 122°26'0 0.1
2014-Aug-18 10:31N 37°55' W 122°26'0 0.0
2014-Aug-18 09:31N 37°55' W 122°26'0 0.0
2014-Aug-18 08:31N 37°55' W 122°26'0 0.0
2014-Aug-18 07:31N 37°55' W 122°26'0 0.0
2014-Aug-18 06:31N 37°55' W 122°26'0 0.0
2014-Aug-18 05:31N 37°55' W 122°26'0 0.0
2014-Aug-18 04:31N 37°55' W 122°26'0 0.1
2014-Aug-18 03:31N 37°55' W 122°26'0 0.0
2014-Aug-18 02:25N 37°55' W 122°26'0 0.0
2014-Aug-18 01:31N 37°55' W 122°26'0 0.0
2014-Aug-18 00:28N 37°55' W 122°26'0 0.0
2014-Aug-17 18:31N 37°55' W 122°26'0 0.0
2014-Aug-17 17:31N 37°55' W 122°26'0 0.0
2014-Aug-17 16:28N 37°55' W 122°26'0 0.0
2014-Aug-17 15:28N 37°55' W 122°26'0 0.0
2014-Aug-17 14:31N 37°55' W 122°26'0 0.0
2014-Aug-17 13:22N 37°55' W 122°26'0 0.0
2014-Aug-17 12:31N 37°55' W 122°26'0 0.0
2014-Aug-17 11:28N 37°55' W 122°26'0 0.0
2014-Aug-17 10:31N 37°55' W 122°26'0 0.1
2014-Aug-17 09:31N 37°55' W 122°26'0 0.0
2014-Aug-17 08:28N 37°55' W 122°26'0 0.0
2014-Aug-17 07:31N 37°55' W 122°26'0 0.0
2014-Aug-17 06:31N 37°55' W 122°26'0 0.0
2014-Aug-17 05:31N 37°55' W 122°26'0 0.0
2014-Aug-17 04:31N 37°55' W 122°26'0 0.0
2014-Aug-17 03:31N 37°55' W 122°26'0 0.1
2014-Aug-17 02:22N 37°55' W 122°26'0 0.1
2014-Aug-17 01:31N 37°55' W 122°26'0 0.0
2014-Aug-17 00:22N 37°55' W 122°26'0 0.0
2014-Aug-16 23:16N 37°55' W 122°26'0 0.0
2014-Aug-16 22:28N 37°55' W 122°26'6 7.1
2014-Aug-16 21:33N 37°49' W 122°27'1111.2
2014-Aug-16 20:33N 37°46' W 122°41'1010.0
2014-Aug-16 19:33N 37°49' W 122°53'10 9.8
2014-Aug-16 18:33N 37°54' W 123°04'10 9.6
2014-Aug-16 17:33N 37°60' W 123°13'10 9.9
2014-Aug-16 16:33N 38°07' W 123°21'1010.0
2014-Aug-16 15:33N 38°16' W 123°27'10 9.9
2014-Aug-16 14:33N 38°25' W 123°32'10 9.9
2014-Aug-16 13:33N 38°34' W 123°38'9 9.5
2014-Aug-16 12:33N 38°43' W 123°43'10 9.4
2014-Aug-16 11:32N 38°51' W 123°48'388 9.6
2014-Aug-14 19:12N 45°18' W 124°44'6 9.9
2014-Aug-14 18:33N 45°24' W 124°44'10 9.9
2014-Aug-14 17:33N 45°34' W 124°42'10 9.7
2014-Aug-14 16:33N 45°43' W 124°38'10 9.8
2014-Aug-14 15:33N 45°52' W 124°32'9 9.5
2014-Aug-14 14:33N 46°00' W 124°25'10 9.5
2014-Aug-14 13:33N 46°08' W 124°17'10 9.8
2014-Aug-14 12:34N 46°14' W 124°06'9 9.2
2014-Aug-14 11:33N 46°11' W 123°54'9 9.4
2014-Aug-14 10:34N 46°15' W 123°41'9 9.3
2014-Aug-14 09:33N 46°16' W 123°28'10 9.5
2014-Aug-14 08:33N 46°09' W 123°19'1111.4
2014-Aug-14 07:33N 46°09' W 123°03'1211.9
2014-Aug-14 06:33N 46°01' W 122°51'1211.6
2014-Aug-14 05:33N 45°49' W 122°48'1110.7
2014-Aug-14 04:33N 45°38' W 122°47'5 4.7
2014-Aug-14 03:33N 45°34' W 122°44'2 1.7
2014-Aug-14 02:33N 45°33' W 122°42'0 0.0
2014-Aug-14 01:33N 45°33' W 122°42'0 0.0
2014-Aug-14 00:33N 45°33' W 122°42'0 0.0
2014-Aug-13 23:33N 45°33' W 122°42'0 0.0
2014-Aug-13 22:33N 45°33' W 122°42'0 0.0
2014-Aug-13 21:34N 45°33' W 122°42'0 0.0
2014-Aug-13 20:33N 45°33' W 122°42'0 0.0
2014-Aug-13 19:33N 45°33' W 122°42'0 0.0
2014-Aug-13 18:34N 45°33' W 122°42'0 0.0
2014-Aug-13 17:33N 45°33' W 122°42'0 0.0
2014-Aug-13 16:34N 45°33' W 122°42'2 1.7
2014-Aug-13 15:33N 45°34' W 122°44'0 0.2
2014-Aug-13 14:33N 45°34' W 122°44'6 5.7
2014-Aug-13 13:33N 45°40' W 122°46'9 9.1
2014-Aug-13 12:33N 45°49' W 122°48'9 9.0
2014-Aug-13 11:33N 45°58' W 122°49'9 8.8
2014-Aug-13 10:33N 46°05' W 122°55'9 8.8
2014-Aug-13 09:33N 46°10' W 123°06'8 7.8
2014-Aug-13 08:33N 46°09' W 123°17'7 7.0
2014-Aug-13 07:34N 46°12' W 123°26'6 6.1
2014-Aug-13 06:33N 46°15' W 123°33'8 7.8
2014-Aug-13 05:33N 46°14' W 123°44'7 7.5
2014-Aug-13 04:33N 46°11' W 123°54'6 5.7
2014-Aug-13 03:33N 46°15' W 124°01'4 4.0
2014-Aug-13 02:33N 46°15' W 124°06'7 6.7
2014-Aug-13 01:33N 46°10' W 124°13'6 6.3
2014-Aug-13 00:33N 46°05' W 124°19'6 6.0
2014-Aug-12 23:32N 45°60' W 124°24'6 5.9
2014-Aug-12 22:33N 45°55' W 124°28'6 5.6
2014-Aug-12 21:33N 45°50' W 124°32'6 6.0
2014-Aug-12 20:33N 45°45' W 124°38'6 6.2
2014-Aug-12 19:33N 45°41' W 124°43'6 6.3
2014-Aug-12 18:33N 45°36' W 124°49'7 6.6
2014-Aug-12 17:33N 45°31' W 124°55'6 6.2
2014-Aug-12 16:32N 45°25' W 124°57'7 6.3
2014-Aug-12 15:26N 45°18' W 124°59'  

Dump ship's entire track history